Airfield :
LOGIN :

Register | Disclaimer

   EN    FR    IT 

 










Legend :    VFR   Marginal VFR   IFR   Intensive IFR   Very Intensive IFR
Visi :
Ceiling :
>= 8 km
>= 3000ft
5 to 8 km
1000 to 3000 ft
1500m to 5 km
500 to 1000 ft
800 to 1500m
200 to 500 ft
< 800m
< 200 ft
Symbols :   Thunderstorms  Fog  Heavy snow  Heavy precipitations  Wind > 20 kt
SIGMETs :     Misc.  Thunderstorms  Icing  Turbulence  Mountain Waves  Volcanic Ashes







- Airport Elevation : 405 ft
- IATA code : ODH


EGVO - RAF Odiham

CURRENT METAR :
  • 211650Z 26007KT 9999 FEW014 BKN250 15/13 Q1015 BLU NOSIG

EXPIRED METARs :
  • 211607Z 27007KT 9999 FEW008 SCT032 BKN080 14/13 Q1015 BLU NOSIG
  • 211550Z 21010KT 6000 +RA SCT008 BKN030 BKN080 15/14 Q1015 GRN BECMG 9999 NSW SCT025 BLU
  • 211450Z 21008KT 9999 -DZ SCT008 BKN032 BKN080 15/14 Q1014 GRN TEMPO FEW008 BLU
  • 211423Z 20010KT 8000 -RADZ FEW006 SCT008 15/14 Q1014 GRN TEMPO 6000 RA GRN

TAF TAF EGVO
Valid from the 21 at 15:00 until the 22 at 03:00 UTC


211338Z 2115/2203 24010KT 9999 BKN012
PROB30
TEMPO 2115/2116 4000 RADZ SCT005
BECMG 2116/2119 SCT025
No reported NOTAMs for that airfield.



MET'MAP, your aeronautical weather chart ! - Copyright ORBIFLY December 2007 - Disclaimer

ORBIFLY MET'MAP TEAM :

Programming & Development : Alexandra Zaïnal
Concept & Development : Baudouin d'Aumeries
Co-Development & Prog : Marc-Olivier Méhu
Technical & hardware support : Manuel Goepfert

Contact : metmap@orbifly.com




SOURCES & CREDITS :

   NOAA